createdAt,value
2022-11-28T00:02:14.433Z,100678.00
2022-11-28T00:04:47.507Z,100684.00
2022-11-28T00:07:20.491Z,100699.00
2022-11-28T00:09:54.701Z,100696.00
2022-11-28T00:12:32.769Z,100695.00
2022-11-28T00:15:05.777Z,100711.00
2022-11-28T00:17:38.857Z,100699.00
2022-11-28T00:20:12.429Z,100693.00
2022-11-28T00:22:45.682Z,100701.00
2022-11-28T00:25:18.993Z,100705.00
2022-11-28T00:27:52.164Z,100697.00
2022-11-28T00:30:29.892Z,100698.00
2022-11-28T00:33:03.058Z,100707.00
2022-11-28T00:35:36.375Z,100704.00
2022-11-28T00:38:09.465Z,100711.00
2022-11-28T00:40:42.428Z,100712.00
2022-11-28T00:43:15.266Z,100719.00
2022-11-28T00:45:48.285Z,100710.00
2022-11-28T00:48:21.398Z,100717.00
2022-11-28T00:50:54.223Z,100722.00
2022-11-28T00:53:28.003Z,100714.00
2022-11-28T00:56:01.000Z,100727.00
2022-11-28T00:58:33.931Z,100725.00
2022-11-28T01:01:17.458Z,100728.00
2022-11-28T01:03:51.488Z,100732.00
2022-11-28T01:06:32.550Z,100737.00
2022-11-28T01:09:07.291Z,100730.00
2022-11-28T01:11:41.255Z,100736.00
2022-11-28T01:14:15.420Z,100736.00
2022-11-28T01:16:48.654Z,100722.00
2022-11-28T01:19:21.694Z,100734.00
2022-11-28T01:21:54.748Z,100729.00
2022-11-28T01:24:27.948Z,100725.00
2022-11-28T01:27:00.896Z,100725.00
2022-11-28T01:29:34.130Z,100724.00
2022-11-28T01:32:07.929Z,100735.00
2022-11-28T01:34:41.839Z,100738.00
2022-11-28T01:37:14.985Z,100729.00
2022-11-28T01:39:50.388Z,100738.00
2022-11-28T01:42:23.496Z,100735.00
2022-11-28T01:44:58.625Z,100739.00
2022-11-28T01:47:33.737Z,100743.00
2022-11-28T01:50:08.581Z,100747.00
2022-11-28T01:52:43.381Z,100734.00
2022-11-28T01:55:18.408Z,100741.00
2022-11-28T01:57:51.265Z,100750.00
2022-11-28T02:00:25.417Z,100752.00
2022-11-28T02:03:00.104Z,100752.00
2022-11-28T02:05:33.156Z,100753.00
2022-11-28T02:08:06.648Z,100755.00
2022-11-28T02:10:53.732Z,100761.00
2022-11-28T02:14:00.704Z,100761.00
2022-11-28T02:16:57.760Z,100772.00
2022-11-28T02:19:36.162Z,100763.00
2022-11-28T02:22:23.350Z,100763.00
2022-11-28T02:25:13.684Z,100770.00
2022-11-28T02:28:19.304Z,100758.00
2022-11-28T02:31:10.493Z,100768.00
2022-11-28T02:33:45.429Z,100767.00
2022-11-28T02:36:23.435Z,100767.00
2022-11-28T02:39:20.635Z,100767.00
2022-11-28T02:42:05.019Z,100776.00
2022-11-28T02:44:48.518Z,100771.00
2022-11-28T02:47:26.564Z,100772.00
2022-11-28T02:50:04.449Z,100764.00
2022-11-28T02:52:45.169Z,100774.00
2022-11-28T02:55:18.974Z,100771.00
2022-11-28T02:57:57.101Z,100772.00
2022-11-28T03:00:41.234Z,100765.00
2022-11-28T03:03:31.435Z,100768.00
2022-11-28T03:06:15.417Z,100776.00
2022-11-28T03:09:05.687Z,100774.00
2022-11-28T03:11:49.722Z,100756.00
2022-11-28T03:14:40.184Z,100768.00
2022-11-28T03:17:18.273Z,100768.00
2022-11-28T03:20:08.309Z,100769.00
2022-11-28T03:22:46.610Z,100771.00
2022-11-28T03:25:33.753Z,100776.00
2022-11-28T03:28:09.065Z,100776.00
2022-11-28T03:30:52.816Z,100775.00
2022-11-28T03:33:27.961Z,100775.00
2022-11-28T03:36:03.017Z,100774.00
2022-11-28T03:38:41.140Z,100788.00
2022-11-28T03:41:15.785Z,100778.00
2022-11-28T03:43:53.880Z,100778.00
2022-11-28T03:46:28.639Z,100790.00
2022-11-28T03:49:02.562Z,100788.00
2022-11-28T03:51:43.799Z,100779.00
2022-11-28T03:54:18.536Z,100787.00
2022-11-28T03:57:02.278Z,100781.00
2022-11-28T03:59:50.137Z,100787.00
2022-11-28T04:02:47.628Z,100786.00
2022-11-28T04:05:44.217Z,100797.00
2022-11-28T04:08:22.114Z,100788.00
2022-11-28T04:11:09.329Z,100789.00
2022-11-28T04:13:44.334Z,100789.00
2022-11-28T04:16:38.017Z,100785.00
2022-11-28T04:19:18.982Z,100795.00
2022-11-28T04:22:05.468Z,100792.00
2022-11-28T04:24:43.909Z,100794.00
2022-11-28T04:27:18.891Z,100797.00
2022-11-28T04:29:53.598Z,100797.00
2022-11-28T04:32:28.087Z,100794.00
2022-11-28T04:35:02.814Z,100795.00
2022-11-28T04:37:38.007Z,100797.00
2022-11-28T04:40:14.018Z,100793.00
2022-11-28T04:42:57.365Z,100798.00
2022-11-28T04:45:32.258Z,100804.00
2022-11-28T04:48:05.665Z,100809.00
2022-11-28T04:50:43.353Z,100814.00
2022-11-28T04:53:18.035Z,100799.00
2022-11-28T04:55:58.662Z,100809.00
2022-11-28T04:58:43.241Z,100802.00
2022-11-28T05:01:17.953Z,100805.00
2022-11-28T05:03:50.992Z,100805.00
2022-11-28T05:06:35.229Z,100806.00
2022-11-28T05:09:08.821Z,100812.00
2022-11-28T05:11:42.831Z,100813.00
2022-11-28T05:14:16.135Z,100818.00
2022-11-28T05:16:49.255Z,100813.00
2022-11-28T05:19:22.194Z,100813.00
2022-11-28T05:21:55.544Z,100819.00
2022-11-28T05:24:32.256Z,100815.00
2022-11-28T05:27:02.624Z,100827.00
2022-11-28T05:29:35.549Z,100818.00
2022-11-28T05:32:08.977Z,100826.00
2022-11-28T05:34:46.420Z,100823.00
2022-11-28T05:37:19.705Z,100817.00
2022-11-28T05:39:52.685Z,100824.00
2022-11-28T05:42:25.779Z,100829.00
2022-11-28T05:44:58.597Z,100833.00
2022-11-28T05:47:32.562Z,100824.00
2022-11-28T05:50:05.550Z,100832.00
2022-11-28T05:52:38.492Z,100838.00
2022-11-28T05:55:12.235Z,100846.00
2022-11-28T05:57:45.123Z,100838.00
2022-11-28T06:00:19.172Z,100837.00
2022-11-28T06:02:54.091Z,100852.00
2022-11-28T06:05:41.449Z,100858.00
2022-11-28T06:08:00.271Z,100855.00
2022-11-28T06:10:33.170Z,100851.00
2022-11-28T06:13:06.081Z,100847.00
2022-11-28T06:15:40.283Z,100853.00
2022-11-28T06:18:13.386Z,100855.00
2022-11-28T06:20:46.284Z,100847.00
2022-11-28T06:23:19.596Z,100854.00
2022-11-28T06:25:52.677Z,100859.00
2022-11-28T06:28:25.933Z,100861.00
2022-11-28T06:30:59.135Z,100861.00
2022-11-28T06:33:32.373Z,100873.00
2022-11-28T06:36:06.577Z,100867.00
2022-11-28T06:38:40.131Z,100868.00
2022-11-28T06:41:17.718Z,100874.00
2022-11-28T06:43:50.707Z,100872.00
2022-11-28T06:46:24.941Z,100871.00
2022-11-28T06:48:57.875Z,100879.00
2022-11-28T06:51:30.866Z,100890.00
2022-11-28T06:54:03.742Z,100892.00
2022-11-28T06:56:36.621Z,100886.00
2022-11-28T06:59:09.565Z,100893.00
2022-11-28T07:01:42.471Z,100895.00
2022-11-28T07:04:15.853Z,100893.00
2022-11-28T07:06:52.952Z,100900.00
2022-11-28T07:09:26.007Z,100895.00
2022-11-28T07:11:59.002Z,100908.00
2022-11-28T07:14:34.119Z,100909.00
2022-11-28T07:17:07.185Z,100913.00
2022-11-28T07:19:44.201Z,100911.00
2022-11-28T07:22:17.355Z,100911.00
2022-11-28T07:24:51.502Z,100917.00
2022-11-28T07:27:24.297Z,100919.00
2022-11-28T07:29:56.990Z,100916.00
2022-11-28T07:32:29.919Z,100926.00
2022-11-28T07:35:02.886Z,100924.00
2022-11-28T07:37:35.780Z,100930.00
2022-11-28T07:40:09.761Z,100937.00
2022-11-28T07:42:42.626Z,100940.00
2022-11-28T07:45:15.967Z,100939.00
2022-11-28T07:47:49.261Z,100946.00
2022-11-28T07:50:22.272Z,100957.00
2022-11-28T07:52:55.165Z,100952.00
2022-11-28T07:55:28.653Z,100959.00
2022-11-28T07:58:01.502Z,100957.00
2022-11-28T08:00:34.788Z,100941.00
2022-11-28T08:03:07.581Z,100946.00
2022-11-28T08:05:40.509Z,100949.00
2022-11-28T08:08:15.840Z,100952.00
2022-11-28T08:10:49.016Z,100954.00
2022-11-28T08:13:22.081Z,100961.00
2022-11-28T08:15:58.958Z,100966.00
2022-11-28T08:18:31.848Z,100954.00
2022-11-28T08:21:16.154Z,100969.00
2022-11-28T08:23:49.004Z,100975.00
2022-11-28T08:26:25.963Z,100966.00
2022-11-28T08:28:57.886Z,100972.00
2022-11-28T08:31:33.113Z,100985.00
2022-11-28T08:34:25.444Z,100981.00
2022-11-28T08:36:58.351Z,100992.00
2022-11-28T08:39:31.429Z,100999.00
2022-11-28T08:42:04.437Z,100995.00
2022-11-28T08:44:37.381Z,100997.00
2022-11-28T08:47:10.750Z,100996.00
2022-11-28T08:49:44.135Z,100999.00
2022-11-28T08:52:17.124Z,101004.00
2022-11-28T08:54:50.172Z,101010.00
2022-11-28T08:57:23.168Z,101014.00
2022-11-28T08:59:56.218Z,101014.00
2022-11-28T09:02:29.630Z,101015.00
2022-11-28T09:05:02.527Z,101016.00
2022-11-28T09:07:35.622Z,101025.00
2022-11-28T09:10:09.072Z,101015.00
2022-11-28T09:12:41.989Z,101015.00
2022-11-28T09:15:15.427Z,101019.00
2022-11-28T09:17:49.302Z,101008.00
2022-11-28T09:20:26.922Z,101026.00
2022-11-28T09:23:01.118Z,101021.00
2022-11-28T09:25:35.149Z,101019.00
2022-11-28T09:28:09.649Z,101023.00
2022-11-28T09:30:44.110Z,101022.00
2022-11-28T09:33:18.582Z,101018.00
2022-11-28T09:35:53.229Z,101020.00
2022-11-28T09:38:27.070Z,101018.00
2022-11-28T09:41:11.773Z,101012.00
2022-11-28T09:43:55.041Z,101022.00
2022-11-28T09:46:29.850Z,101030.00
2022-11-28T09:49:05.733Z,101041.00
2022-11-28T09:51:59.712Z,101036.00
2022-11-28T09:54:46.978Z,101023.00
2022-11-28T09:57:22.709Z,101026.00
2022-11-28T09:59:56.560Z,101023.00
2022-11-28T10:02:41.428Z,101028.00
2022-11-28T10:05:27.075Z,101026.00
2022-11-28T10:08:19.748Z,101031.00
2022-11-28T10:11:04.179Z,101038.00
2022-11-28T10:14:08.190Z,101038.00
2022-11-28T10:17:08.728Z,101032.00
2022-11-28T10:20:00.366Z,101033.00
2022-11-28T10:22:21.609Z,101033.00
2022-11-28T10:25:00.168Z,101027.00
2022-11-28T10:27:36.796Z,101041.00
2022-11-28T10:30:24.976Z,101040.00
2022-11-28T10:33:15.550Z,101039.00
2022-11-28T10:35:53.767Z,101050.00
2022-11-28T10:38:30.029Z,101056.00
2022-11-28T10:41:05.138Z,101051.00
2022-11-28T10:44:07.623Z,101047.00
2022-11-28T10:47:03.404Z,101055.00
2022-11-28T10:49:58.589Z,101054.00
2022-11-28T10:52:39.678Z,101057.00
2022-11-28T10:55:47.906Z,101051.00
2022-11-28T10:58:29.454Z,101056.00
2022-11-28T11:01:03.619Z,101055.00
2022-11-28T11:03:38.847Z,101049.00
2022-11-28T11:06:12.747Z,101044.00
2022-11-28T11:08:46.648Z,101046.00
2022-11-28T11:11:33.487Z,101046.00
2022-11-28T11:14:14.856Z,101061.00
2022-11-28T11:16:55.674Z,101057.00
2022-11-28T11:19:31.652Z,101055.00
2022-11-28T11:22:13.080Z,101059.00
2022-11-28T11:24:46.926Z,101058.00
2022-11-28T11:27:22.237Z,101055.00
2022-11-28T11:29:56.972Z,101060.00
2022-11-28T11:32:32.330Z,101054.00
2022-11-28T11:35:08.686Z,101056.00
2022-11-28T11:37:44.152Z,101038.00
2022-11-28T11:40:34.060Z,101036.00
2022-11-28T11:43:07.919Z,101039.00
2022-11-28T11:45:42.354Z,101046.00
2022-11-28T11:48:16.665Z,101051.00
2022-11-28T11:50:52.725Z,101046.00
2022-11-28T11:53:26.382Z,101050.00
2022-11-28T11:56:02.367Z,101039.00
2022-11-28T11:58:52.452Z,101035.00
2022-11-28T12:01:27.933Z,101028.00
2022-11-28T12:04:13.256Z,101032.00
2022-11-28T12:06:46.551Z,101017.00
2022-11-28T12:09:31.479Z,101025.00
2022-11-28T12:12:14.166Z,101014.00
2022-11-28T12:14:48.409Z,101016.00
2022-11-28T12:20:37.346Z,101006.00
2022-11-28T12:23:23.521Z,101000.00
2022-11-28T12:26:30.887Z,101000.00
2022-11-28T12:31:57.123Z,101001.00
2022-11-28T12:34:39.680Z,101010.00
2022-11-28T12:37:17.764Z,101006.00
2022-11-28T12:40:15.580Z,101003.00
2022-11-28T12:43:12.951Z,101004.00
2022-11-28T12:45:48.115Z,101006.00
2022-11-28T12:48:46.325Z,100995.00
2022-11-28T12:51:50.280Z,100989.00
2022-11-28T12:54:27.383Z,100988.00
2022-11-28T12:57:08.993Z,100983.00
2022-11-28T13:00:02.106Z,100977.00
2022-11-28T13:02:43.765Z,100973.00
2022-11-28T13:05:24.628Z,100970.00
2022-11-28T13:08:19.317Z,100973.00
2022-11-28T13:10:57.169Z,100979.00
2022-11-28T13:13:32.313Z,100974.00
2022-11-28T13:16:28.618Z,100970.00
2022-11-28T13:19:22.619Z,100970.00
2022-11-28T13:22:00.011Z,100972.00
2022-11-28T13:24:37.971Z,100971.00
2022-11-28T13:27:27.588Z,100971.00
2022-11-28T13:30:11.875Z,100967.00
2022-11-28T13:32:47.058Z,100959.00
2022-11-28T13:35:21.215Z,100962.00
2022-11-28T13:40:43.555Z,100968.00
2022-11-28T13:43:21.758Z,100966.00
2022-11-28T13:45:54.915Z,100971.00
2022-11-28T13:51:25.317Z,100974.00
2022-11-28T13:54:15.333Z,100978.00
2022-11-28T13:56:52.450Z,100970.00
2022-11-28T13:59:28.238Z,100975.00
2022-11-28T14:02:05.801Z,100973.00
2022-11-28T14:04:38.929Z,100975.00
2022-11-28T14:07:13.691Z,100982.00
2022-11-28T14:10:06.365Z,100974.00
2022-11-28T14:12:57.324Z,100973.00
2022-11-28T14:15:59.225Z,100982.00
2022-11-28T14:18:58.576Z,100979.00
2022-11-28T14:21:27.684Z,100984.00
2022-11-28T14:24:08.620Z,100986.00
2022-11-28T14:26:44.236Z,100985.00
2022-11-28T14:29:28.293Z,100980.00
2022-11-28T14:32:28.605Z,100979.00
2022-11-28T14:34:46.167Z,100977.00
2022-11-28T14:37:28.256Z,100985.00
2022-11-28T14:40:02.209Z,100977.00
2022-11-28T14:43:00.077Z,100978.00
2022-11-28T14:45:45.908Z,100984.00
2022-11-28T14:48:27.602Z,100981.00
2022-11-28T14:51:02.066Z,100971.00
2022-11-28T14:53:51.950Z,100965.00
2022-11-28T14:56:32.116Z,100973.00
2022-11-28T14:59:05.810Z,100963.00
2022-11-28T15:01:49.511Z,100960.00
2022-11-28T15:04:24.541Z,100962.00
2022-11-28T15:06:58.525Z,100957.00
2022-11-28T15:09:39.475Z,100964.00
2022-11-28T15:12:20.831Z,100966.00
2022-11-28T15:14:56.056Z,100973.00
2022-11-28T15:17:34.404Z,100967.00
2022-11-28T15:20:09.120Z,100978.00
2022-11-28T15:22:48.696Z,100970.00
2022-11-28T15:25:28.684Z,100971.00
2022-11-28T15:28:01.625Z,100971.00
2022-11-28T15:30:35.032Z,100969.00
2022-11-28T15:33:08.908Z,100976.00
2022-11-28T15:35:42.403Z,100980.00
2022-11-28T15:38:17.203Z,100992.00
2022-11-28T15:40:52.768Z,100985.00
2022-11-28T15:43:26.602Z,100981.00
2022-11-28T15:46:01.588Z,100977.00
2022-11-28T15:48:40.165Z,100980.00
2022-11-28T15:51:15.167Z,100982.00
2022-11-28T15:53:48.142Z,100984.00
2022-11-28T15:56:21.865Z,100990.00
2022-11-28T15:58:54.988Z,100983.00
2022-11-28T16:01:32.170Z,100978.00
2022-11-28T16:04:10.354Z,100985.00
2022-11-28T16:06:44.791Z,100974.00
2022-11-28T16:09:28.829Z,100974.00
2022-11-28T16:12:01.840Z,100979.00
2022-11-28T16:14:36.603Z,100985.00
2022-11-28T16:17:11.788Z,100998.00
2022-11-28T16:19:46.550Z,100998.00
2022-11-28T16:22:24.112Z,100986.00
2022-11-28T16:25:00.840Z,100985.00
2022-11-28T16:27:41.766Z,101003.00
2022-11-28T16:30:28.664Z,101004.00
2022-11-28T16:33:01.902Z,101005.00
2022-11-28T16:35:47.385Z,101006.00
2022-11-28T16:38:31.170Z,101010.00
2022-11-28T16:41:07.392Z,101010.00
2022-11-28T16:43:42.715Z,101022.00
2022-11-28T16:46:23.818Z,101036.00
2022-11-28T16:49:01.023Z,101036.00
2022-11-28T16:51:38.982Z,101037.00
2022-11-28T16:54:34.106Z,101044.00
2022-11-28T16:57:16.511Z,101043.00
2022-11-28T16:59:50.072Z,101041.00
2022-11-28T17:02:27.805Z,101047.00
2022-11-28T17:05:00.828Z,101049.00
2022-11-28T17:07:35.118Z,101055.00
2022-11-28T17:10:08.317Z,101058.00
2022-11-28T17:12:41.099Z,101066.00
2022-11-28T17:15:16.280Z,101064.00
2022-11-28T17:17:49.288Z,101065.00
2022-11-28T17:20:22.324Z,101071.00
2022-11-28T17:22:56.604Z,101067.00
2022-11-28T17:25:29.347Z,101072.00
2022-11-28T17:28:02.208Z,101077.00
2022-11-28T17:30:34.976Z,101078.00
2022-11-28T17:33:07.763Z,101089.00
2022-11-28T17:35:43.686Z,101092.00
2022-11-28T17:38:16.669Z,101093.00
2022-11-28T17:40:49.375Z,101085.00
2022-11-28T17:43:23.535Z,101083.00
2022-11-28T17:45:56.895Z,101085.00
2022-11-28T17:48:29.988Z,101089.00
2022-11-28T17:51:04.131Z,101094.00
2022-11-28T17:53:37.212Z,101092.00
2022-11-28T17:56:10.450Z,101094.00
2022-11-28T17:58:43.316Z,101089.00
2022-11-28T18:01:17.681Z,101095.00
2022-11-28T18:03:54.739Z,101091.00
2022-11-28T18:06:27.547Z,101093.00
2022-11-28T18:09:01.526Z,101090.00
2022-11-28T18:11:34.685Z,101086.00
2022-11-28T18:14:07.597Z,101092.00
2022-11-28T18:16:41.889Z,101084.00
2022-11-28T18:19:14.972Z,101094.00
2022-11-28T18:21:48.094Z,101094.00
2022-11-28T18:24:21.257Z,101093.00
2022-11-28T18:26:54.318Z,101087.00
2022-11-28T18:29:27.244Z,101085.00
2022-11-28T18:32:00.355Z,101096.00
2022-11-28T18:34:33.500Z,101086.00
2022-11-28T18:37:06.477Z,101096.00
2022-11-28T18:39:39.440Z,101099.00
2022-11-28T18:42:12.364Z,101115.00
2022-11-28T18:44:45.164Z,101103.00
2022-11-28T18:47:18.199Z,101108.00
2022-11-28T18:49:51.088Z,101103.00
2022-11-28T18:52:24.090Z,101096.00
2022-11-28T18:54:57.131Z,101099.00
2022-11-28T18:57:31.442Z,101091.00
2022-11-28T19:00:04.652Z,101096.00
2022-11-28T19:02:37.523Z,101101.00
2022-11-28T19:05:11.327Z,101109.00
2022-11-28T19:07:44.137Z,101107.00
2022-11-28T19:10:17.363Z,101105.00
2022-11-28T19:12:50.267Z,101107.00
2022-11-28T19:15:23.086Z,101109.00
2022-11-28T19:17:55.984Z,101113.00
2022-11-28T19:20:28.867Z,101115.00
2022-11-28T19:23:01.646Z,101104.00
2022-11-28T19:25:34.596Z,101115.00
2022-11-28T19:28:07.627Z,101112.00
2022-11-28T19:30:40.426Z,101122.00
2022-11-28T19:33:13.504Z,101115.00
2022-11-28T19:35:46.357Z,101108.00
2022-11-28T19:38:19.244Z,101117.00
2022-11-28T19:40:52.373Z,101116.00
2022-11-28T19:43:25.372Z,101112.00
2022-11-28T19:46:01.784Z,101100.00
2022-11-28T19:48:35.943Z,101109.00
2022-11-28T19:51:09.403Z,101105.00
2022-11-28T19:53:43.618Z,101108.00
2022-11-28T19:56:22.516Z,101096.00
2022-11-28T19:58:55.530Z,101100.00
2022-11-28T20:01:30.035Z,101103.00
2022-11-28T20:04:03.442Z,101100.00
2022-11-28T20:06:36.394Z,101092.00
2022-11-28T20:09:14.994Z,101093.00
2022-11-28T20:11:48.380Z,101099.00
2022-11-28T20:14:22.723Z,101104.00
2022-11-28T20:16:55.722Z,101116.00
2022-11-28T20:19:28.842Z,101128.00
2022-11-28T20:22:02.971Z,101124.00
2022-11-28T20:24:35.950Z,101130.00
2022-11-28T20:27:09.145Z,101124.00
2022-11-28T20:29:42.275Z,101119.00
2022-11-28T20:32:15.312Z,101114.00
2022-11-28T20:34:48.473Z,101131.00
2022-11-28T20:37:21.305Z,101126.00
2022-11-28T20:39:54.229Z,101131.00
2022-11-28T20:42:27.122Z,101117.00
2022-11-28T20:45:00.309Z,101113.00
2022-11-28T20:47:33.679Z,101109.00
2022-11-28T20:50:06.458Z,101119.00
2022-11-28T20:52:39.423Z,101118.00
2022-11-28T20:55:13.094Z,101114.00
2022-11-28T20:57:46.211Z,101118.00
2022-11-28T21:00:23.506Z,101115.00
2022-11-28T21:02:53.873Z,101125.00
2022-11-28T21:05:26.812Z,101131.00
2022-11-28T21:07:59.927Z,101128.00
2022-11-28T21:10:34.024Z,101124.00
2022-11-28T21:13:07.225Z,101129.00
2022-11-28T21:15:48.093Z,101125.00
2022-11-28T21:18:21.297Z,101124.00
2022-11-28T21:20:54.817Z,101119.00
2022-11-28T21:23:27.908Z,101118.00
2022-11-28T21:26:00.883Z,101122.00
2022-11-28T21:28:33.924Z,101113.00
2022-11-28T21:31:14.693Z,101120.00
2022-11-28T21:33:48.870Z,101119.00
2022-11-28T21:36:21.919Z,101123.00
2022-11-28T21:38:56.058Z,101118.00
2022-11-28T21:41:33.637Z,101113.00
2022-11-28T21:44:06.579Z,101113.00
2022-11-28T21:46:40.090Z,101110.00
2022-11-28T21:49:13.136Z,101100.00
2022-11-28T21:51:45.780Z,101099.00
2022-11-28T21:54:18.687Z,101101.00
2022-11-28T21:56:51.682Z,101092.00
2022-11-28T21:59:24.655Z,101104.00
2022-11-28T22:01:57.603Z,101082.00
2022-11-28T22:04:30.775Z,101091.00
2022-11-28T22:07:03.666Z,101081.00
2022-11-28T22:09:36.728Z,101084.00
2022-11-28T22:12:10.010Z,101079.00
2022-11-28T22:14:42.839Z,101079.00
2022-11-28T22:17:15.917Z,101076.00
2022-11-28T22:19:48.816Z,101075.00
2022-11-28T22:22:21.880Z,101074.00
2022-11-28T22:24:54.562Z,101075.00
2022-11-28T22:27:27.684Z,101069.00
2022-11-28T22:30:00.672Z,101077.00
2022-11-28T22:32:33.575Z,101066.00
2022-11-28T22:35:06.636Z,101066.00
2022-11-28T22:37:39.589Z,101065.00
2022-11-28T22:40:13.582Z,101050.00
2022-11-28T22:42:46.450Z,101052.00
2022-11-28T22:45:19.559Z,101056.00
2022-11-28T22:47:52.945Z,101053.00
2022-11-28T22:50:25.815Z,101037.00
2022-11-28T22:52:58.636Z,101039.00
2022-11-28T22:55:31.465Z,101041.00
2022-11-28T22:58:04.387Z,101039.00
2022-11-28T23:00:37.484Z,101040.00
2022-11-28T23:03:10.588Z,101036.00
2022-11-28T23:05:48.972Z,101030.00
2022-11-28T23:08:18.129Z,101029.00
2022-11-28T23:10:51.082Z,101019.00
2022-11-28T23:13:23.911Z,101031.00
2022-11-28T23:15:56.871Z,101021.00
2022-11-28T23:18:29.803Z,101021.00
2022-11-28T23:21:02.727Z,101023.00
2022-11-28T23:23:39.913Z,101025.00
2022-11-28T23:26:15.314Z,101020.00
2022-11-28T23:28:48.783Z,101022.00
2022-11-28T23:31:29.634Z,101025.00
2022-11-28T23:34:02.993Z,101031.00
2022-11-28T23:36:42.162Z,101021.00
2022-11-28T23:39:23.031Z,101015.00
2022-11-28T23:41:56.105Z,101007.00
2022-11-28T23:44:29.537Z,100999.00
2022-11-28T23:47:02.555Z,101000.00
2022-11-28T23:49:35.944Z,100999.00
2022-11-28T23:52:08.930Z,101000.00
2022-11-28T23:54:42.176Z,100984.00
2022-11-28T23:57:15.110Z,100980.00
2022-11-28T23:59:48.129Z,100984.00
